createdAt,value
2023-01-19T00:01:32.318Z,58.05
2023-01-19T00:06:34.469Z,53.30
2023-01-19T00:11:36.735Z,46.15
2023-01-19T00:16:39.407Z,64.68
2023-01-19T00:21:41.493Z,45.00
2023-01-19T00:26:43.546Z,65.18
2023-01-19T00:31:45.655Z,74.85
2023-01-19T00:36:47.835Z,65.68
2023-01-19T00:42:08.423Z,85.93
2023-01-19T00:47:10.619Z,80.13
2023-01-19T00:52:12.684Z,85.57
2023-01-19T00:57:16.115Z,85.20
2023-01-19T01:02:18.600Z,100.40
2023-01-19T01:07:24.469Z,90.32
2023-01-19T01:12:26.765Z,96.63
2023-01-19T01:17:28.899Z,98.60
2023-01-19T01:22:31.672Z,92.22
2023-01-19T01:27:33.905Z,80.00
2023-01-19T01:32:36.162Z,99.88
2023-01-19T01:37:38.995Z,115.72
2023-01-19T01:42:41.357Z,104.43
2023-01-19T01:47:47.436Z,95.85
2023-01-19T01:53:08.098Z,92.03
2023-01-19T01:58:11.851Z,82.82
2023-01-19T02:03:13.969Z,89.40
2023-01-19T02:09:00.656Z,113.85
2023-01-19T02:14:05.428Z,68.18
2023-01-19T02:19:11.349Z,89.47
2023-01-19T02:24:13.843Z,69.57
2023-01-19T02:29:20.193Z,94.07
2023-01-19T02:34:23.274Z,61.17
2023-01-19T02:39:36.809Z,74.78
2023-01-19T02:44:41.831Z,43.13
2023-01-19T02:49:44.005Z,62.33
2023-01-19T02:55:34.224Z,50.85
2023-01-19T03:00:56.718Z,56.10
2023-01-19T03:06:19.038Z,69.57
2023-01-19T03:11:21.252Z,43.38
2023-01-19T03:16:30.771Z,51.17
2023-01-19T03:21:36.246Z,51.28
2023-01-19T03:26:44.608Z,42.80
2023-01-19T03:31:50.890Z,55.88
2023-01-19T03:36:55.393Z,71.90
2023-01-19T03:42:10.028Z,47.17
2023-01-19T03:47:14.989Z,63.50
2023-01-19T03:52:17.206Z,68.28
2023-01-19T03:57:19.326Z,62.35
2023-01-19T04:02:21.390Z,68.35
2023-01-19T04:07:23.493Z,62.75
2023-01-19T04:12:25.652Z,62.63
2023-01-19T04:17:27.745Z,62.53
2023-01-19T04:22:29.973Z,44.30
2023-01-19T04:27:32.025Z,60.13
2023-01-19T04:32:34.162Z,50.10
2023-01-19T04:37:36.245Z,46.08
2023-01-19T04:42:38.491Z,50.65
2023-01-19T04:47:40.857Z,45.85
2023-01-19T04:52:42.997Z,50.22
2023-01-19T04:57:45.843Z,48.72
2023-01-19T05:02:48.279Z,34.88
2023-01-19T05:07:50.409Z,32.30
2023-01-19T05:12:52.734Z,31.35
2023-01-19T05:17:54.834Z,28.10
2023-01-19T05:22:57.124Z,28.35
2023-01-19T05:27:59.274Z,23.48
2023-01-19T05:33:01.817Z,27.02
2023-01-19T05:38:04.865Z,35.13
2023-01-19T05:43:07.006Z,28.05
2023-01-19T05:48:09.512Z,26.23
2023-01-19T05:53:12.335Z,20.63
2023-01-19T05:58:14.463Z,17.02
2023-01-19T06:03:16.643Z,47.22
2023-01-19T06:08:18.954Z,39.80
2023-01-19T06:13:21.643Z,52.08
2023-01-19T06:18:23.890Z,54.63
2023-01-19T06:23:31.392Z,54.63
2023-01-19T06:28:33.567Z,39.75
2023-01-19T06:33:35.709Z,54.28
2023-01-19T06:38:37.867Z,50.05
2023-01-19T06:43:40.093Z,46.55
2023-01-19T06:48:42.267Z,68.65
2023-01-19T06:53:44.471Z,44.42
2023-01-19T06:58:50.920Z,44.53
2023-01-19T07:03:53.388Z,50.38
2023-01-19T07:08:55.827Z,52.97
2023-01-19T07:13:57.994Z,52.53
2023-01-19T07:19:00.110Z,50.15
2023-01-19T07:24:02.268Z,49.42
2023-01-19T07:29:04.558Z,41.47
2023-01-19T07:34:07.363Z,44.35
2023-01-19T07:39:09.551Z,36.55
2023-01-19T07:44:11.673Z,44.00
2023-01-19T07:49:13.732Z,31.30
2023-01-19T07:54:16.049Z,38.17
2023-01-19T07:59:18.189Z,40.55
2023-01-19T08:04:20.915Z,39.55
2023-01-19T08:09:24.708Z,29.10
2023-01-19T08:14:26.791Z,21.27
2023-01-19T08:19:30.053Z,30.02
2023-01-19T08:24:32.320Z,33.60
2023-01-19T08:29:34.472Z,28.75
2023-01-19T08:34:36.540Z,34.63
2023-01-19T08:39:38.699Z,24.77
2023-01-19T08:44:49.717Z,34.03
2023-01-19T08:49:59.179Z,25.08
2023-01-19T08:55:01.928Z,32.80
2023-01-19T09:00:04.816Z,24.85
2023-01-19T09:05:07.570Z,17.45
2023-01-19T09:10:10.836Z,19.02
2023-01-19T09:15:16.715Z,18.23
2023-01-19T09:20:18.943Z,21.17
2023-01-19T09:25:21.011Z,18.92
2023-01-19T09:30:23.226Z,18.30
2023-01-19T09:35:25.324Z,18.42
2023-01-19T09:40:28.527Z,14.35
2023-01-19T09:45:37.172Z,23.05
2023-01-19T09:50:46.911Z,15.63
2023-01-19T09:55:50.340Z,20.55
2023-01-19T10:01:06.107Z,13.45
2023-01-19T10:06:12.186Z,16.27
2023-01-19T10:11:53.162Z,17.35
2023-01-19T10:17:28.267Z,19.35
2023-01-19T10:22:30.371Z,15.77
2023-01-19T10:27:36.761Z,16.38
2023-01-19T10:32:39.655Z,16.75
2023-01-19T10:37:42.405Z,9.27
2023-01-19T10:42:44.732Z,14.32
2023-01-19T10:47:55.818Z,8.07
2023-01-19T10:53:01.207Z,8.25
2023-01-19T10:58:04.173Z,12.18
2023-01-19T11:03:30.154Z,12.85
2023-01-19T11:08:32.331Z,17.27
2023-01-19T11:13:35.469Z,16.35
2023-01-19T11:18:40.162Z,14.30
2023-01-19T11:23:47.577Z,11.85
2023-01-19T11:28:51.707Z,4.60
2023-01-19T11:33:56.402Z,9.73
2023-01-19T11:39:00.980Z,11.60
2023-01-19T11:44:21.626Z,14.52
2023-01-19T11:49:48.884Z,10.57
2023-01-19T11:55:29.517Z,9.57
2023-01-19T12:00:35.852Z,15.57
2023-01-19T12:05:41.711Z,6.63
2023-01-19T12:10:47.363Z,11.95
2023-01-19T12:15:55.350Z,13.18
2023-01-19T12:20:59.050Z,9.77
2023-01-19T12:26:19.620Z,9.93
2023-01-19T12:31:23.601Z,16.17
2023-01-19T12:36:33.470Z,9.95
2023-01-19T12:41:38.658Z,5.22
2023-01-19T12:47:03.649Z,11.40
2023-01-19T12:52:34.630Z,11.48
2023-01-19T12:57:50.038Z,9.32
2023-01-19T13:02:54.641Z,15.32
2023-01-19T13:08:03.145Z,9.10
2023-01-19T13:13:24.353Z,12.60
2023-01-19T13:18:35.684Z,10.15
2023-01-19T13:23:50.246Z,15.05
2023-01-19T13:29:26.429Z,12.82
2023-01-19T13:34:43.086Z,5.55
2023-01-19T13:39:46.907Z,15.77
2023-01-19T13:44:52.762Z,7.05
2023-01-19T13:49:59.239Z,15.15
2023-01-19T13:55:04.396Z,14.55
2023-01-19T14:00:12.978Z,15.60
2023-01-19T14:05:36.132Z,11.17
2023-01-19T14:10:42.449Z,7.90
2023-01-19T14:15:46.254Z,18.63
2023-01-19T14:21:01.935Z,10.75
2023-01-19T14:26:04.167Z,17.13
2023-01-19T14:31:28.415Z,12.00
2023-01-19T14:36:36.608Z,15.43
2023-01-19T14:41:41.135Z,12.20
2023-01-19T14:46:48.567Z,14.45
2023-01-19T14:51:51.423Z,19.48
2023-01-19T14:56:54.393Z,10.48
2023-01-19T15:01:56.920Z,9.20
2023-01-19T15:06:59.077Z,8.82
2023-01-19T15:12:01.279Z,11.98
2023-01-19T15:17:03.530Z,9.20
2023-01-19T15:22:13.680Z,12.60
2023-01-19T15:27:16.635Z,7.80
2023-01-19T15:32:18.913Z,9.20
2023-01-19T15:37:21.269Z,3.90
2023-01-19T15:42:23.536Z,7.15
2023-01-19T15:47:25.680Z,8.88
2023-01-19T15:52:27.915Z,6.53
2023-01-19T15:57:30.129Z,10.15
2023-01-19T16:02:34.721Z,5.63
2023-01-19T16:07:37.159Z,8.10
2023-01-19T16:12:39.827Z,7.05
2023-01-19T16:17:42.363Z,7.57
2023-01-19T16:22:44.665Z,9.07
2023-01-19T16:27:46.915Z,8.18
2023-01-19T16:32:49.383Z,10.35
2023-01-19T16:37:52.078Z,14.45
2023-01-19T16:42:54.133Z,12.32
2023-01-19T16:47:56.303Z,18.20
2023-01-19T16:52:59.236Z,23.83
2023-01-19T16:58:01.560Z,16.98
2023-01-19T17:03:03.675Z,13.50
2023-01-19T17:08:05.924Z,16.90
2023-01-19T17:13:08.089Z,20.10
2023-01-19T17:18:10.579Z,19.92
2023-01-19T17:23:12.792Z,21.80
2023-01-19T17:28:14.962Z,20.80
2023-01-19T17:33:17.731Z,14.52
2023-01-19T17:38:19.923Z,29.90
2023-01-19T17:43:22.181Z,24.85
2023-01-19T17:48:24.292Z,20.50
2023-01-19T17:53:26.492Z,21.27
2023-01-19T17:58:31.263Z,21.55
2023-01-19T18:03:33.920Z,23.85
2023-01-19T18:08:39.371Z,21.05
2023-01-19T18:13:43.929Z,22.40
2023-01-19T18:18:46.150Z,18.75
2023-01-19T18:23:49.681Z,18.17
2023-01-19T18:28:59.208Z,25.02
2023-01-19T18:34:01.294Z,24.25
2023-01-19T18:39:04.604Z,21.23
2023-01-19T18:44:06.924Z,27.77
2023-01-19T18:49:09.992Z,24.65
2023-01-19T18:54:12.261Z,24.88
2023-01-19T18:59:14.309Z,18.48
2023-01-19T19:04:16.590Z,37.47
2023-01-19T19:09:18.958Z,26.73
2023-01-19T19:14:21.614Z,30.15
2023-01-19T19:19:23.863Z,25.60
2023-01-19T19:24:26.103Z,24.83
2023-01-19T19:29:28.850Z,29.83
2023-01-19T19:34:31.191Z,24.45
2023-01-19T19:39:33.301Z,26.20
2023-01-19T19:44:35.505Z,25.38
2023-01-19T19:49:37.757Z,21.65
2023-01-19T19:54:40.743Z,18.88
2023-01-19T19:59:42.874Z,24.27
2023-01-19T20:04:45.440Z,21.75
2023-01-19T20:09:48.069Z,22.58
2023-01-19T20:14:50.429Z,24.00
2023-01-19T20:19:52.768Z,13.88
2023-01-19T20:24:55.117Z,20.25
2023-01-19T20:29:58.564Z,28.48
2023-01-19T20:35:00.856Z,20.88
2023-01-19T20:40:03.187Z,25.10
2023-01-19T20:45:05.688Z,21.80
2023-01-19T20:50:08.425Z,22.88
2023-01-19T20:55:10.858Z,21.27
2023-01-19T21:00:13.447Z,19.25
2023-01-19T21:05:15.602Z,30.45
2023-01-19T21:10:18.162Z,32.75
2023-01-19T21:15:20.324Z,21.38
2023-01-19T21:20:22.394Z,30.70
2023-01-19T21:25:24.502Z,17.27
2023-01-19T21:30:26.657Z,18.63
2023-01-19T21:35:29.070Z,17.15
2023-01-19T21:40:31.540Z,21.27
2023-01-19T21:45:34.226Z,13.98
2023-01-19T21:50:36.493Z,14.95
2023-01-19T21:55:38.879Z,10.63
2023-01-19T22:00:41.451Z,14.30
2023-01-19T22:05:43.554Z,15.80
2023-01-19T22:10:45.688Z,12.63
2023-01-19T22:15:47.821Z,12.55
2023-01-19T22:20:49.897Z,8.95
2023-01-19T22:25:52.014Z,8.15
2023-01-19T22:30:54.211Z,4.88
2023-01-19T22:36:28.420Z,6.05
2023-01-19T22:41:33.187Z,3.15
2023-01-19T22:46:37.259Z,2.35
2023-01-19T22:51:39.691Z,4.82
2023-01-19T22:56:42.161Z,4.22
2023-01-19T23:01:44.868Z,2.25
2023-01-19T23:06:50.663Z,2.30
2023-01-19T23:11:53.329Z,2.88
2023-01-19T23:16:55.591Z,6.20
2023-01-19T23:21:57.795Z,6.88
2023-01-19T23:27:01.866Z,2.42
2023-01-19T23:32:04.114Z,1.65
2023-01-19T23:37:06.271Z,3.40
2023-01-19T23:42:08.535Z,5.07
2023-01-19T23:47:10.609Z,4.57
2023-01-19T23:52:12.737Z,3.35
2023-01-19T23:57:14.791Z,9.98
